Time;durP1;ratioP1;P1;durP2;ratioP2;P2;SDS_P1;SDS_P2;PMS_P1;PMS_P2;Temp;Humidity;BMP_temperature;BMP_pressure;BME280_temperature;BME280_humidity;BME280_pressure;Samples;Min_cycle;Max_cycle;Signal;HPM_P1;HPM_P2
2022/10/08 00:01:14;;;;;;;7.05;1.80;;;16.00;96.60;;;;;;5034798;28;20025;-66
2022/10/08 00:03:43;;;;;;;12.57;2.60;;;16.00;96.60;;;;;;5034782;28;20022;-66
2022/10/08 00:06:13;;;;;;;10.00;2.20;;;16.00;96.70;;;;;;5034721;28;20032;-68
2022/10/08 00:08:41;;;;;;;7.45;1.98;;;16.00;96.80;;;;;;5034775;28;20026;-66
2022/10/08 00:11:13;;;;;;;6.55;1.70;;;16.00;96.90;;;;;;5034478;28;20033;-66
2022/10/08 00:13:40;;;;;;;8.75;2.45;;;16.00;97.00;;;;;;5034780;28;20022;-66
2022/10/08 00:16:23;;;;;;;7.20;1.65;;;16.00;97.00;;;;;;5034539;28;20028;-64
2022/10/08 00:18:49;;;;;;;;;;;16.00;97.10;;;;;;5035105;28;20036;-65
2022/10/08 00:21:22;;;;;;;10.38;1.95;;;15.90;97.10;;;;;;5034158;28;19909;-64
2022/10/08 00:23:49;;;;;;;9.48;1.60;;;15.90;97.20;;;;;;5034209;28;20033;-66
2022/10/08 00:26:17;;;;;;;8.77;2.08;;;15.90;97.30;;;;;;5034462;28;20116;-66
2022/10/08 00:28:45;;;;;;;7.20;2.05;;;15.90;97.30;;;;;;5034719;28;20100;-66
2022/10/08 00:31:14;;;;;;;10.18;2.60;;;15.90;97.60;;;;;;5037538;28;20044;-65
2022/10/08 00:33:39;;;;;;;10.02;2.15;;;16.00;97.30;;;;;;5034450;28;20109;-60
2022/10/08 00:36:09;;;;;;;9.15;2.45;;;16.00;97.30;;;;;;5030776;28;20060;-66
2022/10/08 00:38:35;;;;;;;9.60;2.35;;;16.00;97.40;;;;;;5030827;28;20021;-66
2022/10/08 00:41:01;;;;;;;11.80;2.30;;;16.00;97.50;;;;;;5033845;28;20136;-67
2022/10/08 00:43:43;;;;;;;10.27;2.10;;;16.00;97.60;;;;;;5033870;28;20021;-66
2022/10/08 00:46:45;;;;;;;9.88;2.58;;;16.00;97.80;;;;;;5034015;28;20092;-64
2022/10/08 00:49:20;;;;;;;9.38;2.08;;;16.00;98.00;;;;;;5022351;28;20034;-66
2022/10/08 00:51:53;;;;;;;11.63;2.60;;;16.00;98.20;;;;;;5049732;28;20128;-67
2022/10/08 00:54:20;;;;;;;7.90;1.92;;;16.00;98.40;;;;;;5053602;28;20021;-66
2022/10/08 00:56:52;;;;;;;14.70;2.70;;;16.00;98.60;;;;;;5053496;28;20099;-65
2022/10/08 00:59:19;;;;;;;8.65;2.35;;;16.00;98.70;;;;;;5053784;28;20024;-66
2022/10/08 01:01:45;;;;;;;8.70;2.13;;;16.00;98.90;;;;;;5053240;28;20096;-66
2022/10/08 01:04:12;;;;;;;8.82;1.90;;;16.00;99.00;;;;;;5053094;28;20545;-67
2022/10/08 01:07:05;;;;;;;9.93;2.83;;;16.00;99.10;;;;;;5053838;28;20465;-67
2022/10/08 01:09:37;;;;;;;9.68;2.10;;;16.00;99.20;;;;;;5053650;28;20017;-67
2022/10/08 01:12:40;;;;;;;9.52;2.08;;;16.00;99.40;;;;;;5053355;28;20037;-66
2022/10/08 01:15:08;;;;;;;6.65;1.92;;;16.00;99.40;;;;;;5053377;28;20098;-66
2022/10/08 01:17:50;;;;;;;6.68;1.85;;;16.00;99.70;;;;;;5053524;28;20029;-66
2022/10/08 01:20:30;;;;;;;7.13;2.35;;;16.00;99.80;;;;;;5053525;28;20107;-67
2022/10/08 01:23:20;;;;;;;9.35;2.45;;;16.00;99.90;;;;;;5052794;28;20040;-66
2022/10/08 01:25:57;;;;;;;10.63;2.17;;;16.00;99.90;;;;;;5053391;28;20031;-65
2022/10/08 01:28:34;;;;;;;7.95;2.05;;;16.00;99.90;;;;;;5053290;28;20035;-66
2022/10/08 01:31:17;;;;;;;7.57;2.10;;;16.00;99.90;;;;;;5053028;28;20470;-66
2022/10/08 01:34:02;;;;;;;10.27;2.97;;;16.00;99.90;;;;;;5052829;28;20036;-66
2022/10/08 01:36:34;;;;;;;8.48;2.17;;;16.00;99.90;;;;;;5053367;28;20397;-66
2022/10/08 01:39:01;;;;;;;;;;;16.00;99.90;;;;;;5053498;28;20107;-66
2022/10/08 01:41:30;;;;;;;11.27;2.55;;;16.00;99.90;;;;;;5053087;28;19912;-59
2022/10/08 01:44:04;;;;;;;10.18;2.63;;;15.90;99.90;;;;;;5053107;28;20048;-58
2022/10/08 01:46:30;;;;;;;8.10;2.35;;;15.90;99.90;;;;;;5052619;28;20104;-59
2022/10/08 01:49:01;;;;;;;10.60;2.78;;;15.90;99.90;;;;;;5053152;28;20032;-64
2022/10/08 01:51:34;;;;;;;8.27;2.78;;;15.90;99.90;;;;;;5052237;28;20112;-59
2022/10/08 01:54:08;;;;;;;10.20;2.92;;;15.90;99.90;;;;;;5052716;28;20378;-63
2022/10/08 01:56:37;;;;;;;8.13;3.35;;;15.90;99.90;;;;;;5053144;28;20029;-60
2022/10/08 01:59:14;;;;;;;13.73;3.40;;;15.90;99.90;;;;;;5051856;28;20051;-63
2022/10/08 02:01:57;;;;;;;13.95;3.47;;;15.90;99.90;;;;;;5051577;28;20029;-60
2022/10/08 02:04:34;;;;;;;9.05;3.17;;;16.00;99.90;;;;;;5022515;28;20446;-59
2022/10/08 02:07:14;;;;;;;6.30;2.33;;;15.90;99.90;;;;;;5031893;28;20390;-60
2022/10/08 02:09:51;;;;;;;8.00;2.88;;;15.90;99.90;;;;;;5031951;28;20049;-62
2022/10/08 02:12:17;;;;;;;7.82;2.55;;;15.90;99.90;;;;;;5032748;28;20034;-61
2022/10/08 02:14:47;;;;;;;7.82;2.42;;;15.90;99.90;;;;;;5032576;28;20109;-60
2022/10/08 02:17:38;;;;;;;6.93;2.55;;;15.90;99.90;;;;;;5032478;28;20022;-59
2022/10/08 02:20:19;;;;;;;8.40;2.70;;;15.90;99.90;;;;;;5032573;28;20064;-63
2022/10/08 02:23:04;;;;;;;7.82;2.78;;;15.90;99.90;;;;;;5032763;28;20029;-66
2022/10/08 02:25:42;;;;;;;6.97;2.55;;;15.90;99.90;;;;;;5032614;28;20037;-66
2022/10/08 02:28:27;;;;;;;8.63;2.95;;;15.90;99.90;;;;;;5032568;28;20022;-65
2022/10/08 02:31:03;;;;;;;8.75;2.83;;;15.90;99.90;;;;;;5032222;28;20026;-66
2022/10/08 02:33:43;;;;;;;7.15;2.80;;;15.90;99.90;;;;;;5032785;28;20057;-65
2022/10/08 02:36:13;;;;;;;8.25;2.80;;;15.90;99.90;;;;;;5032634;28;20021;-66
2022/10/08 02:38:47;;;;;;;7.50;2.58;;;15.90;99.90;;;;;;5032846;28;20159;-66
2022/10/08 02:41:14;;;;;;;8.23;2.90;;;15.80;99.90;;;;;;5032355;28;20223;-66
2022/10/08 02:43:45;;;;;;;7.88;2.60;;;15.80;99.90;;;;;;5032533;28;20095;-67
2022/10/08 02:46:22;;;;;;;10.07;3.77;;;15.80;99.90;;;;;;5031995;28;20032;-64
2022/10/08 02:48:58;;;;;;;5.80;2.75;;;15.80;99.90;;;;;;5032675;28;20304;-66
2022/10/08 02:51:26;;;;;;;13.98;3.50;;;15.80;99.90;;;;;;5032463;28;20029;-66
2022/10/08 02:53:52;;;;;;;7.80;2.90;;;15.80;99.90;;;;;;5031281;28;20104;-66
2022/10/08 02:56:50;;;;;;;16.13;2.88;;;15.80;99.90;;;;;;5032382;28;20104;-64
2022/10/08 02:59:18;;;;;;;8.77;2.83;;;15.80;99.90;;;;;;5024395;28;20029;-59
2022/10/08 03:01:57;;;;;;;8.02;3.13;;;15.80;99.90;;;;;;5032327;28;20463;-66
2022/10/08 03:04:26;;;;;;;8.05;3.15;;;15.80;99.90;;;;;;5035206;28;20100;-66
2022/10/08 03:06:52;;;;;;;6.60;2.63;;;15.80;99.90;;;;;;5035980;28;20036;-66
2022/10/08 03:09:20;;;;;;;7.95;3.10;;;15.70;99.90;;;;;;5036087;28;20474;-66
2022/10/08 03:11:46;;;;;;;11.10;3.53;;;15.80;99.90;;;;;;5035643;28;20052;-66
2022/10/08 03:14:14;;;;;;;9.23;3.30;;;15.70;99.90;;;;;;5035722;28;20032;-63
2022/10/08 03:16:45;;;;;;;10.73;3.33;;;15.70;99.90;;;;;;5035900;28;20068;-61
2022/10/08 03:19:16;;;;;;;6.47;2.50;;;15.70;99.90;;;;;;5035797;28;20022;-59
2022/10/08 03:21:44;;;;;;;12.15;3.15;;;15.70;99.90;;;;;;5035519;28;20029;-59
2022/10/08 03:24:12;;;;;;;7.63;2.80;;;15.70;99.90;;;;;;5035627;28;20029;-59
2022/10/08 03:26:38;;;;;;;7.82;2.70;;;15.70;99.90;;;;;;5035895;28;20080;-59
2022/10/08 03:29:04;;;;;;;11.25;3.13;;;15.70;99.90;;;;;;5035252;28;20021;-58
2022/10/08 03:31:30;;;;;;;10.93;3.15;;;15.70;99.90;;;;;;5035430;28;20073;-60
2022/10/08 03:33:56;;;;;;;9.38;3.33;;;15.70;99.90;;;;;;5035471;28;20025;-59
2022/10/08 03:36:23;;;;;;;11.00;2.95;;;15.60;99.90;;;;;;5035505;28;20032;-58
2022/10/08 03:38:49;;;;;;;9.55;3.08;;;15.60;99.90;;;;;;5035432;28;20465;-60
2022/10/08 03:41:15;;;;;;;8.07;2.85;;;15.60;99.90;;;;;;5035354;28;20022;-58
2022/10/08 03:43:41;;;;;;;8.73;2.92;;;15.60;99.90;;;;;;5035003;28;20032;-60
2022/10/08 03:46:07;;;;;;;9.48;3.45;;;15.60;99.90;;;;;;5035116;28;20021;-60
2022/10/08 03:48:33;;;;;;;6.93;2.70;;;15.60;99.90;;;;;;5035137;28;20475;-59
2022/10/08 03:51:02;;;;;;;9.55;3.03;;;15.60;99.90;;;;;;5035175;28;20024;-59
2022/10/08 03:53:30;;;;;;;10.57;3.17;;;15.60;99.90;;;;;;5035153;28;20029;-60
2022/10/08 03:56:03;;;;;;;10.15;3.15;;;15.50;99.90;;;;;;5034997;28;20026;-59
2022/10/08 03:58:29;;;;;;;5.93;2.80;;;15.50;99.90;;;;;;5034794;28;20079;-59
2022/10/08 04:01:02;;;;;;;10.77;3.78;;;15.50;99.90;;;;;;5034604;28;20080;-60
2022/10/08 04:03:29;;;;;;;11.48;2.97;;;15.50;99.90;;;;;;5035057;28;20028;-61
2022/10/08 04:05:55;;;;;;;12.07;3.10;;;15.50;99.90;;;;;;5034745;28;20514;-66
2022/10/08 04:08:21;;;;;;;8.35;3.50;;;15.50;99.90;;;;;;5050106;28;20022;-66
2022/10/08 04:10:46;;;;;;;6.32;3.13;;;15.50;99.90;;;;;;5034809;28;20108;-65
2022/10/08 04:13:13;;;;;;;9.75;3.17;;;15.50;99.90;;;;;;5034407;28;20493;-66
2022/10/08 04:15:39;;;;;;;6.65;2.67;;;15.50;99.90;;;;;;5033780;28;20494;-67
2022/10/08 04:18:06;;;;;;;5.65;2.75;;;15.40;99.90;;;;;;5034453;28;20018;-66
2022/10/08 04:20:32;;;;;;;7.90;2.95;;;15.40;99.90;;;;;;5034802;28;20040;-66
2022/10/08 04:22:57;;;;;;;6.40;2.85;;;15.40;99.90;;;;;;5034383;28;20108;-66
2022/10/08 04:25:23;;;;;;;8.45;3.13;;;15.40;99.90;;;;;;5034816;28;20163;-66
2022/10/08 04:27:49;;;;;;;9.60;2.75;;;15.40;99.90;;;;;;5034067;28;20497;-66
2022/10/08 04:30:15;;;;;;;9.45;3.20;;;15.40;99.90;;;;;;5034342;28;20025;-59
2022/10/08 04:32:41;;;;;;;7.13;2.88;;;15.40;99.90;;;;;;5034055;28;20034;-59
2022/10/08 04:35:07;;;;;;;9.90;3.15;;;15.40;99.90;;;;;;5034320;28;20045;-59
2022/10/08 04:37:33;;;;;;;8.45;2.42;;;15.40;99.90;;;;;;5034433;28;20112;-59
2022/10/08 04:39:58;;;;;;;10.93;2.85;;;15.30;99.90;;;;;;5032989;28;20106;-66
2022/10/08 04:42:24;;;;;;;8.30;3.30;;;15.30;99.90;;;;;;5033791;28;20083;-66
2022/10/08 04:44:50;;;;;;;11.63;3.08;;;15.30;99.90;;;;;;5033843;28;20543;-63
2022/10/08 04:47:15;;;;;;;8.18;2.60;;;15.30;99.90;;;;;;5034113;28;20029;-66
2022/10/08 04:49:41;;;;;;;6.30;2.45;;;15.30;99.90;;;;;;5034157;28;20053;-65
2022/10/08 04:52:07;;;;;;;6.90;2.78;;;15.30;99.90;;;;;;5033734;28;20103;-65
2022/10/08 04:54:32;;;;;;;7.65;2.97;;;15.30;99.90;;;;;;5033821;28;20029;-59
2022/10/08 04:56:58;;;;;;;9.98;3.30;;;15.20;99.90;;;;;;5033865;28;20427;-65
2022/10/08 04:59:23;;;;;;;10.57;3.63;;;15.20;99.90;;;;;;5034274;28;20030;-65
2022/10/08 05:01:49;;;;;;;6.43;2.85;;;15.20;99.90;;;;;;5026073;28;20018;-66
2022/10/08 05:04:15;;;;;;;9.25;3.10;;;15.20;99.90;;;;;;5017941;28;20384;-65
2022/10/08 05:06:40;;;;;;;8.50;2.83;;;15.20;99.90;;;;;;5012827;28;20034;-59
2022/10/08 05:09:06;;;;;;;10.68;3.10;;;15.20;99.90;;;;;;5012105;28;20022;-59
2022/10/08 05:11:32;;;;;;;9.57;3.03;;;15.20;99.90;;;;;;5013880;28;20034;-58
2022/10/08 05:13:58;;;;;;;7.05;2.75;;;15.20;99.90;;;;;;5013895;28;20026;-58
2022/10/08 05:16:25;;;;;;;10.35;3.15;;;15.10;99.90;;;;;;5013931;28;20018;-58
2022/10/08 05:18:51;;;;;;;8.43;3.20;;;15.20;99.90;;;;;;5013718;28;20033;-58
2022/10/08 05:21:20;;;;;;;8.55;3.03;;;15.10;99.90;;;;;;5013669;28;20034;-58
2022/10/08 05:23:46;;;;;;;9.70;3.42;;;15.10;99.90;;;;;;5028544;28;20029;-58
2022/10/08 05:26:12;;;;;;;9.70;3.40;;;15.10;99.90;;;;;;5014148;28;20097;-58
2022/10/08 05:28:38;;;;;;;7.65;3.25;;;15.10;99.90;;;;;;5013363;28;20096;-59
2022/10/08 05:31:03;;;;;;;8.35;3.70;;;15.10;99.90;;;;;;5013532;28;20029;-60
2022/10/08 05:33:29;;;;;;;8.57;3.15;;;15.10;99.90;;;;;;5013631;28;20041;-65
2022/10/08 05:35:54;;;;;;;9.20;3.35;;;15.10;99.90;;;;;;5013616;28;20542;-66
2022/10/08 05:38:20;;;;;;;10.98;3.55;;;15.00;99.90;;;;;;5013047;28;20395;-65
2022/10/08 05:40:45;;;;;;;8.35;3.15;;;15.00;99.90;;;;;;5029005;28;20025;-65
2022/10/08 05:43:11;;;;;;;9.45;3.17;;;15.00;99.90;;;;;;5013373;28;20060;-59
2022/10/08 05:45:37;;;;;;;12.30;4.22;;;15.00;99.90;;;;;;5013575;28;20068;-64
2022/10/08 05:48:02;;;;;;;8.82;3.22;;;15.00;99.90;;;;;;5013475;28;20026;-58
2022/10/08 05:50:28;;;;;;;10.23;3.30;;;15.00;99.90;;;;;;5013080;28;20042;-59
2022/10/08 05:52:53;;;;;;;11.05;3.50;;;15.00;99.90;;;;;;5013494;28;20084;-58
2022/10/08 05:55:19;;;;;;;10.23;2.88;;;15.00;99.90;;;;;;5013189;28;20029;-60
2022/10/08 05:57:44;;;;;;;8.18;3.53;;;14.90;99.90;;;;;;5013999;28;20030;-61
2022/10/08 06:00:10;;;;;;;14.25;4.63;;;14.70;99.90;;;;;;5014912;28;20108;-61
2022/10/08 06:02:36;;;;;;;12.35;3.80;;;14.70;99.90;;;;;;5021134;28;20101;-62
2022/10/08 06:05:02;;;;;;;10.73;4.22;;;14.50;99.90;;;;;;5031101;28;20737;-61
2022/10/08 06:07:27;;;;;;;12.27;4.35;;;14.60;99.90;;;;;;5026415;28;20041;-61
2022/10/08 06:09:53;;;;;;;13.23;4.60;;;14.50;99.90;;;;;;5023760;28;20018;-60
2022/10/08 06:12:18;;;;;;;11.65;3.95;;;14.50;99.90;;;;;;5027530;28;20041;-61
2022/10/08 06:14:44;;;;;;;13.10;3.90;;;14.50;99.90;;;;;;5020122;28;20025;-62
2022/10/08 06:17:10;;;;;;;13.93;3.63;;;14.50;99.90;;;;;;5021079;28;20367;-62
2022/10/08 06:19:36;;;;;;;10.63;4.03;;;14.50;99.90;;;;;;5027136;28;20443;-65
2022/10/08 06:22:03;;;;;;;19.00;4.65;;;14.50;99.90;;;;;;5024721;28;20038;-65
2022/10/08 06:24:28;;;;;;;13.80;4.22;;;14.50;99.90;;;;;;5019843;28;20441;-64
2022/10/08 06:26:54;;;;;;;10.65;3.88;;;14.50;99.90;;;;;;5021319;28;20116;-65
2022/10/08 06:29:21;;;;;;;17.52;4.50;;;14.50;99.90;;;;;;5025926;28;20067;-62
2022/10/08 06:31:47;;;;;;;12.85;4.47;;;14.50;99.90;;;;;;5021239;28;20034;-61
2022/10/08 06:34:12;;;;;;;13.68;4.53;;;14.50;99.90;;;;;;5018675;28;20394;-63
2022/10/08 06:36:38;;;;;;;13.23;4.28;;;14.50;99.90;;;;;;5023804;28;20572;-62
2022/10/08 06:39:11;;;;;;;16.50;4.50;;;14.50;99.90;;;;;;5022697;28;20030;-64
2022/10/08 06:41:36;;;;;;;9.88;4.05;;;14.50;99.90;;;;;;5024671;28;20026;-63
2022/10/08 06:44:04;;;;;;;10.15;4.50;;;14.50;99.90;;;;;;5026517;28;20030;-63
2022/10/08 06:46:31;;;;;;;11.98;4.57;;;14.60;99.90;;;;;;5030486;28;20049;-63
2022/10/08 06:48:57;;;;;;;11.73;5.05;;;14.60;99.90;;;;;;5031413;28;20371;-65
2022/10/08 06:51:23;;;;;;;10.68;4.65;;;14.70;99.90;;;;;;5030614;28;20060;-62
2022/10/08 06:53:56;;;;;;;13.45;3.75;;;14.70;99.90;;;;;;5032254;28;20060;-63
2022/10/08 06:56:23;;;;;;;8.63;2.10;;;14.70;99.90;;;;;;5039146;28;20034;-63
2022/10/08 06:58:49;;;;;;;4.60;1.80;;;14.70;99.90;;;;;;5024365;28;20048;-64
2022/10/08 07:01:21;;;;;;;9.45;2.47;;;14.80;99.90;;;;;;5028755;28;20502;-65
2022/10/08 07:03:51;;;;;;;4.20;1.90;;;14.80;99.90;;;;;;5027684;28;20048;-65
2022/10/08 07:06:17;;;;;;;15.18;5.38;;;14.90;99.90;;;;;;5032954;28;20033;-64
2022/10/08 07:08:43;;;;;;;12.25;4.63;;;14.90;99.90;;;;;;5039075;28;20546;-63
2022/10/08 07:11:14;;;;;;;12.52;4.45;;;14.90;99.90;;;;;;5028098;28;20116;-63
2022/10/08 07:13:40;;;;;;;16.10;5.28;;;14.90;99.90;;;;;;5035630;28;20099;-65
2022/10/08 07:16:11;;;;;;;12.57;4.47;;;14.90;99.90;;;;;;5036306;28;20025;-62
2022/10/08 07:18:39;;;;;;;12.70;4.43;;;15.00;99.90;;;;;;5035674;28;20513;-64
2022/10/08 07:21:06;;;;;;;12.23;3.38;;;15.10;99.90;;;;;;5029153;28;20474;-65
2022/10/08 07:23:32;;;;;;;10.52;4.03;;;15.10;99.90;;;;;;5028021;28;20043;-64
2022/10/08 07:26:05;;;;;;;12.20;3.47;;;15.20;99.90;;;;;;5042736;28;20116;-63
2022/10/08 07:28:34;;;;;;;13.55;4.50;;;15.30;99.90;;;;;;5033311;28;20029;-65
2022/10/08 07:31:16;;;;;;;15.55;4.53;;;15.30;99.80;;;;;;5035690;28;20029;-65
2022/10/08 07:33:41;;;;;;;9.85;2.85;;;15.30;99.80;;;;;;5041169;28;20041;-64
2022/10/08 07:36:19;;;;;;;11.27;4.53;;;15.30;99.90;;;;;;5043475;28;20037;-63
2022/10/08 07:38:46;;;;;;;11.55;3.38;;;15.30;99.80;;;;;;5044607;28;20032;-64
2022/10/08 07:41:13;;;;;;;12.02;3.65;;;15.40;99.90;;;;;;5027192;28;20391;-62
2022/10/08 07:43:42;;;;;;;22.95;5.22;;;15.50;99.90;;;;;;5033935;28;20080;-62
2022/10/08 07:46:11;;;;;;;15.93;3.83;;;15.50;99.90;;;;;;5034441;28;20506;-63
2022/10/08 07:48:37;;;;;;;10.00;4.22;;;15.60;99.90;;;;;;5029805;28;20068;-64
2022/10/08 07:51:11;;;;;;;13.65;5.07;;;15.50;99.90;;;;;;5025106;28;20079;-64
2022/10/08 07:53:38;;;;;;;11.18;4.10;;;15.50;99.90;;;;;;5009920;28;20029;-63
2022/10/08 07:56:04;;;;;;;12.93;5.07;;;15.50;99.90;;;;;;5033372;28;20036;-64
2022/10/08 07:58:30;;;;;;;13.18;4.93;;;15.50;99.90;;;;;;5033045;28;20064;-65
2022/10/08 08:00:57;;;;;;;9.55;3.15;;;15.50;99.90;;;;;;5029139;28;20439;-64
2022/10/08 08:03:22;;;;;;;8.75;3.22;;;15.50;99.90;;;;;;5041827;28;20029;-62
2022/10/08 08:05:48;;;;;;;8.63;3.03;;;15.60;99.90;;;;;;5032483;28;20440;-62
2022/10/08 08:08:14;;;;;;;9.55;2.78;;;15.60;99.90;;;;;;5031072;28;20045;-62
2022/10/08 08:10:39;;;;;;;14.50;3.13;;;15.60;99.90;;;;;;5036366;28;20052;-64
2022/10/08 08:13:05;;;;;;;17.88;3.75;;;15.60;99.90;;;;;;5028272;28;20041;-63
2022/10/08 08:15:31;;;;;;;12.02;3.30;;;15.60;99.90;;;;;;5039933;28;20061;-63
2022/10/08 08:17:57;;;;;;;12.13;2.65;;;15.70;99.90;;;;;;5040555;28;20056;-63
2022/10/08 08:20:23;;;;;;;15.20;3.85;;;15.70;99.90;;;;;;5034860;28;20391;-64
2022/10/08 08:22:49;;;;;;;11.32;3.55;;;15.70;99.90;;;;;;5030817;28;20064;-64
2022/10/08 08:25:14;;;;;;;12.85;3.80;;;15.70;99.70;;;;;;5033071;28;20025;-66
2022/10/08 08:27:40;;;;;;;11.20;3.17;;;15.70;99.60;;;;;;5025315;28;20072;-63
2022/10/08 08:30:06;;;;;;;7.85;2.28;;;15.70;99.50;;;;;;5021975;28;20411;-62
2022/10/08 08:32:32;;;;;;;11.98;2.97;;;15.70;99.60;;;;;;5022528;28;20128;-65
2022/10/08 08:34:57;;;;;;;9.20;2.92;;;15.70;99.70;;;;;;5033030;28;20453;-66
2022/10/08 08:37:23;;;;;;;12.90;3.72;;;15.70;99.50;;;;;;5033019;28;20554;-67
2022/10/08 08:39:48;;;;;;;10.35;3.08;;;15.80;99.60;;;;;;5029456;28;20498;-66
2022/10/08 08:42:52;;;;;;;9.73;2.53;;;15.80;99.50;;;;;;5034868;28;20164;-67
2022/10/08 08:45:26;;;;;;;7.18;2.25;;;15.80;99.30;;;;;;5033257;28;20032;-67
2022/10/08 08:48:04;;;;;;;10.75;2.17;;;15.80;99.10;;;;;;5031751;28;20035;-66
2022/10/08 08:50:37;;;;;;;9.18;2.10;;;15.80;98.90;;;;;;5026928;28;20032;-66
2022/10/08 08:53:03;;;;;;;11.90;2.35;;;15.80;98.80;;;;;;5031736;28;20041;-66
2022/10/08 08:55:41;;;;;;;14.43;2.47;;;15.80;98.90;;;;;;5029279;28;20631;-66
2022/10/08 08:58:26;;;;;;;8.63;1.77;;;15.90;98.40;;;;;;5023427;28;20036;-66
2022/10/08 09:01:12;;;;;;;6.68;1.63;;;15.90;97.90;;;;;;5022357;28;20033;-66
2022/10/08 09:03:46;;;;;;;6.30;1.25;;;15.90;97.80;;;;;;5021138;28;20150;-67
2022/10/08 09:06:14;;;;;;;5.30;1.33;;;15.90;97.70;;;;;;5025970;28;20132;-67
2022/10/08 09:09:00;;;;;;;10.70;1.27;;;15.90;97.70;;;;;;5020048;28;20029;-66
2022/10/08 09:11:28;;;;;;;9.20;1.50;;;15.90;97.40;;;;;;5018917;28;20032;-66
2022/10/08 09:13:59;;;;;;;5.32;1.42;;;15.90;97.20;;;;;;5020631;28;20092;-66
2022/10/08 09:16:26;;;;;;;8.25;1.38;;;15.90;97.20;;;;;;5024552;28;20053;-66
2022/10/08 09:18:52;;;;;;;10.05;1.42;;;15.90;97.30;;;;;;5030884;28;20490;-64
2022/10/08 09:21:19;;;;;;;5.78;1.40;;;15.90;97.30;;;;;;5031557;28;20031;-65
2022/10/08 09:23:46;;;;;;;8.30;1.75;;;15.90;97.10;;;;;;5044713;28;20112;-65
2022/10/08 09:26:23;;;;;;;8.52;1.10;;;15.90;97.00;;;;;;5036401;28;20025;-66
2022/10/08 09:28:50;;;;;;;6.10;1.40;;;16.00;96.90;;;;;;5033942;28;20043;-66
2022/10/08 09:31:40;;;;;;;6.68;1.30;;;16.00;96.40;;;;;;5021302;28;20030;-66
2022/10/08 09:34:17;;;;;;;7.50;2.15;;;16.00;96.60;;;;;;5034112;28;20029;-65
2022/10/08 09:36:46;;;;;;;7.18;1.80;;;16.00;96.60;;;;;;5023675;28;20029;-66
2022/10/08 09:39:21;;;;;;;7.38;2.60;;;15.90;96.00;;;;;;5024195;28;20395;-66
2022/10/08 09:42:06;;;;;;;8.13;2.50;;;15.90;96.20;;;;;;5035091;28;20025;-66
2022/10/08 09:44:43;;;;;;;9.00;1.90;;;16.00;96.60;;;;;;5028842;28;20025;-65
2022/10/08 09:47:17;;;;;;;13.85;5.22;;;16.00;95.60;;;;;;5027065;28;20029;-67
2022/10/08 09:49:43;;;;;;;10.63;4.25;;;16.00;97.00;;;;;;5027220;28;20143;-66
2022/10/08 09:52:19;;;;;;;21.40;6.70;;;16.00;97.50;;;;;;5035135;28;20033;-67
2022/10/08 09:55:00;;;;;;;20.13;5.72;;;16.00;99.20;;;;;;5034788;28;20120;-66
2022/10/08 09:57:27;;;;;;;9.83;2.67;;;16.00;97.90;;;;;;5026614;28;20036;-67
2022/10/08 09:59:56;;;;;;;12.30;3.92;;;16.00;97.00;;;;;;5031667;28;20087;-66
2022/10/08 10:02:27;;;;;;;14.55;3.65;;;16.00;97.30;;;;;;5029605;28;20037;-66
2022/10/08 10:04:54;;;;;;;14.23;3.83;;;16.00;97.20;;;;;;5024569;28;20045;-65
2022/10/08 10:07:19;;;;;;;7.97;2.28;;;16.00;96.80;;;;;;5026408;28;20033;-66
2022/10/08 10:09:56;;;;;;;10.13;1.67;;;16.00;96.40;;;;;;5027808;28;20034;-66
2022/10/08 10:12:39;;;;;;;10.52;1.92;;;16.10;96.30;;;;;;5036060;28;20025;-66
2022/10/08 10:15:11;;;;;;;12.68;2.60;;;16.10;96.40;;;;;;5042925;28;20022;-65
2022/10/08 10:17:40;;;;;;;9.63;2.85;;;16.00;97.30;;;;;;5052544;28;20497;-66
2022/10/08 10:20:18;;;;;;;8.00;1.33;;;16.10;98.40;;;;;;5048827;28;20218;-65
2022/10/08 10:22:51;;;;;;;9.02;1.88;;;16.10;95.80;;;;;;5035407;28;20143;-66
2022/10/08 10:25:43;;;;;;;16.75;7.00;;;16.10;95.40;;;;;;5038577;28;20483;-66
2022/10/08 10:28:17;;;;;;;19.42;6.25;;;16.20;99.90;;;;;;5030868;28;20029;-66
2022/10/08 10:31:09;;;;;;;12.48;4.88;;;16.20;99.90;;;;;;5033521;28;20584;-66
2022/10/08 10:33:51;;;;;;;11.02;3.72;;;16.30;99.90;;;;;;5029761;28;20135;-67
2022/10/08 10:36:19;;;;;;;12.32;3.58;;;16.30;99.90;;;;;;5035611;28;20282;-66
2022/10/08 10:38:52;;;;;;;13.80;3.20;;;16.20;99.90;;;;;;5034920;28;20713;-67
2022/10/08 10:41:42;;;;;;;10.38;4.30;;;16.30;99.90;;;;;;5034305;28;20033;-67
2022/10/08 10:44:14;;;;;;;9.77;4.03;;;16.40;99.90;;;;;;5040040;28;22626;-67
2022/10/08 10:46:43;;;;;;;6.82;1.27;;;16.30;99.90;;;;;;5037757;28;20026;-67
2022/10/08 10:49:34;;;;;;;8.95;2.20;;;16.30;99.90;;;;;;5029106;28;20033;-67
2022/10/08 10:52:23;;;;;;;7.50;2.30;;;16.30;99.90;;;;;;5034050;28;20490;-67
2022/10/08 10:55:04;;;;;;;5.60;1.77;;;16.40;99.80;;;;;;5040950;28;20036;-67
2022/10/08 10:58:06;;;;;;;10.05;2.40;;;16.40;98.60;;;;;;5030178;28;20406;-67
2022/10/08 11:00:59;;;;;;;5.57;1.30;;;16.40;99.40;;;;;;5032626;28;20025;-67
2022/10/08 11:03:43;;;;;;;6.97;1.10;;;16.40;98.00;;;;;;5018603;28;20059;-65
2022/10/08 11:06:36;;;;;;;7.95;1.60;;;16.40;96.10;;;;;;5029545;28;20425;-67
2022/10/08 11:09:13;;;;;;;5.53;1.58;;;16.40;96.00;;;;;;5027923;28;20086;-65
2022/10/08 11:11:46;;;;;;;4.70;1.05;;;16.50;95.20;;;;;;5035406;28;20045;-66
2022/10/08 11:14:19;;;;;;;4.55;1.05;;;16.40;94.20;;;;;;5032787;28;20378;-67
2022/10/08 11:16:54;;;;;;;4.88;0.80;;;16.50;93.60;;;;;;5038255;28;20291;-67
2022/10/08 11:19:41;;;;;;;7.60;1.15;;;16.50;94.10;;;;;;5023999;28;20021;-67
2022/10/08 11:22:18;;;;;;;4.07;0.75;;;16.50;94.60;;;;;;5029003;28;20032;-67
2022/10/08 11:25:03;;;;;;;4.53;1.20;;;16.50;94.20;;;;;;5026706;28;20117;-67
2022/10/08 11:27:47;;;;;;;7.32;1.10;;;16.50;93.80;;;;;;5029147;28;20160;-66
2022/10/08 11:30:22;;;;;;;3.15;0.90;;;16.60;93.70;;;;;;5020556;28;20068;-65
2022/10/08 11:32:54;;;;;;;5.68;1.10;;;16.60;94.00;;;;;;5032746;28;20512;-66
2022/10/08 11:35:33;;;;;;;7.83;1.80;;;16.60;93.50;;;;;;5027574;28;20022;-66
2022/10/08 11:38:23;;;;;;;5.40;1.02;;;16.60;93.00;;;;;;5031724;28;20292;-65
2022/10/08 11:41:02;;;;;;;4.38;0.60;;;16.60;92.70;;;;;;5026566;28;20395;-66
2022/10/08 11:43:53;;;;;;;4.47;0.73;;;16.60;93.40;;;;;;5031413;28;20091;-66
2022/10/08 11:46:29;;;;;;;5.63;0.50;;;16.70;93.10;;;;;;5031629;28;20065;-65
2022/10/08 11:49:00;;;;;;;2.72;0.65;;;16.60;91.90;;;;;;5034300;28;20022;-66
2022/10/08 11:51:33;;;;;;;3.58;0.77;;;16.70;91.70;;;;;;5033173;28;20040;-66
2022/10/08 11:54:08;;;;;;;5.40;1.02;;;16.70;91.40;;;;;;5024930;28;20670;-66
2022/10/08 11:56:37;;;;;;;4.55;0.80;;;16.70;91.40;;;;;;5032510;28;20025;-67
2022/10/08 11:59:25;;;;;;;5.82;0.68;;;16.70;92.50;;;;;;5025723;28;20033;-66
2022/10/08 12:01:59;;;;;;;5.95;0.77;;;16.80;92.40;;;;;;5020113;28;20041;-66
2022/10/08 12:04:34;;;;;;;5.78;1.15;;;16.70;92.70;;;;;;5033342;28;20024;-65
2022/10/08 12:07:24;;;;;;;5.65;1.10;;;16.80;92.60;;;;;;5041969;28;20029;-65
2022/10/08 12:10:04;;;;;;;4.85;0.90;;;16.80;92.10;;;;;;5029820;28;20033;-65
2022/10/08 12:12:48;;;;;;;3.85;0.98;;;16.80;92.70;;;;;;5032127;28;20041;-66
2022/10/08 12:15:23;;;;;;;7.25;1.02;;;16.90;92.70;;;;;;5030688;28;20545;-65
2022/10/08 12:17:57;;;;;;;4.80;0.88;;;16.90;92.40;;;;;;5030094;28;20494;-65
2022/10/08 12:20:24;;;;;;;8.18;0.90;;;16.90;91.80;;;;;;5033513;28;20052;-66
2022/10/08 12:23:12;;;;;;;6.32;0.95;;;16.90;91.10;;;;;;5032792;28;20033;-65
2022/10/08 12:26:07;;;;;;;4.90;1.10;;;16.90;91.10;;;;;;5029969;28;20024;-65
2022/10/08 12:28:36;;;;;;;4.80;0.93;;;16.90;91.30;;;;;;5031096;28;20025;-65
2022/10/08 12:31:15;;;;;;;6.60;0.88;;;16.90;91.20;;;;;;5023085;28;20038;-66
2022/10/08 12:33:40;;;;;;;5.25;1.15;;;16.90;91.70;;;;;;5025282;28;20041;-64
2022/10/08 12:36:17;;;;;;;4.57;0.63;;;16.90;91.20;;;;;;5033339;28;20044;-66
2022/10/08 12:39:04;;;;;;;3.80;1.02;;;16.90;90.90;;;;;;5033842;28;20025;-66
2022/10/08 12:42:00;;;;;;;7.60;1.08;;;16.90;91.50;;;;;;5026697;28;20028;-66
2022/10/08 12:45:04;;;;;;;4.38;0.90;;;16.90;92.00;;;;;;5027680;28;20037;-65
2022/10/08 12:48:00;;;;;;;3.85;0.82;;;17.00;92.70;;;;;;5026709;28;20044;-65
2022/10/08 12:50:40;;;;;;;4.70;1.02;;;17.00;92.90;;;;;;5029015;28;20044;-66
2022/10/08 12:53:07;;;;;;;6.97;0.77;;;17.00;92.90;;;;;;5026712;28;20083;-66
2022/10/08 12:55:48;;;;;;;5.88;0.90;;;17.00;92.60;;;;;;5021939;28;20029;-66
2022/10/08 12:58:18;;;;;;;5.22;1.15;;;17.00;92.00;;;;;;5031524;28;20028;-66
2022/10/08 13:00:48;;;;;;;4.57;0.90;;;17.00;92.20;;;;;;5031839;28;20075;-65
2022/10/08 13:03:16;;;;;;;4.93;0.95;;;17.10;91.00;;;;;;5025086;28;20022;-65
2022/10/08 13:05:43;;;;;;;5.90;1.25;;;17.10;92.20;;;;;;5028427;28;20080;-65
2022/10/08 13:08:33;;;;;;;3.47;0.70;;;17.10;91.00;;;;;;5028968;28;20057;-65